sensor_id;sensor_type;location;lat;lon;timestamp;P1;durP1;ratioP1;P2;durP2;ratioP2
5965;SDS011;3009;43.224;27.976;2023-05-10T00:02:00;7.33;;;4.87;;
5965;SDS011;3009;43.224;27.976;2023-05-10T00:04:29;5.73;;;5.20;;
5965;SDS011;3009;43.224;27.976;2023-05-10T00:06:59;6.80;;;6.10;;
5965;SDS011;3009;43.224;27.976;2023-05-10T00:09:28;12.17;;;5.30;;
5965;SDS011;3009;43.224;27.976;2023-05-10T00:11:56;8.03;;;5.47;;
5965;SDS011;3009;43.224;27.976;2023-05-10T00:14:25;5.40;;;4.90;;
5965;SDS011;3009;43.224;27.976;2023-05-10T00:16:53;12.07;;;5.53;;
5965;SDS011;3009;43.224;27.976;2023-05-10T00:19:22;6.63;;;4.60;;
5965;SDS011;3009;43.224;27.976;2023-05-10T00:21:50;18.37;;;6.20;;
5965;SDS011;3009;43.224;27.976;2023-05-10T00:24:20;7.57;;;4.93;;
5965;SDS011;3009;43.224;27.976;2023-05-10T00:26:48;10.50;;;5.37;;
5965;SDS011;3009;43.224;27.976;2023-05-10T00:29:16;7.73;;;5.00;;
5965;SDS011;3009;43.224;27.976;2023-05-10T00:31:45;6.73;;;5.30;;
5965;SDS011;3009;43.224;27.976;2023-05-10T00:34:13;5.13;;;4.63;;
5965;SDS011;3009;43.224;27.976;2023-05-10T00:36:41;5.10;;;4.60;;
5965;SDS011;3009;43.224;27.976;2023-05-10T00:39:10;5.77;;;5.17;;
5965;SDS011;3009;43.224;27.976;2023-05-10T00:41:40;5.13;;;4.63;;
5965;SDS011;3009;43.224;27.976;2023-05-10T00:44:08;10.13;;;5.43;;
5965;SDS011;3009;43.224;27.976;2023-05-10T00:46:36;5.17;;;4.70;;
5965;SDS011;3009;43.224;27.976;2023-05-10T00:49:05;6.43;;;5.67;;
5965;SDS011;3009;43.224;27.976;2023-05-10T00:51:34;5.27;;;4.60;;
5965;SDS011;3009;43.224;27.976;2023-05-10T00:54:03;7.57;;;5.87;;
5965;SDS011;3009;43.224;27.976;2023-05-10T00:56:31;9.53;;;5.40;;
5965;SDS011;3009;43.224;27.976;2023-05-10T00:59:01;8.20;;;5.30;;
5965;SDS011;3009;43.224;27.976;2023-05-10T01:01:30;9.23;;;5.67;;
5965;SDS011;3009;43.224;27.976;2023-05-10T01:03:58;9.30;;;5.50;;
5965;SDS011;3009;43.224;27.976;2023-05-10T01:06:27;6.50;;;5.80;;
5965;SDS011;3009;43.224;27.976;2023-05-10T01:08:55;8.23;;;6.07;;
5965;SDS011;3009;43.224;27.976;2023-05-10T01:11:24;7.50;;;6.23;;
5965;SDS011;3009;43.224;27.976;2023-05-10T01:13:54;8.40;;;5.20;;
5965;SDS011;3009;43.224;27.976;2023-05-10T01:16:25;8.37;;;5.63;;
5965;SDS011;3009;43.224;27.976;2023-05-10T01:18:55;13.23;;;5.73;;
5965;SDS011;3009;43.224;27.976;2023-05-10T01:21:26;9.37;;;6.57;;
5965;SDS011;3009;43.224;27.976;2023-05-10T01:24:14;7.90;;;7.03;;
5965;SDS011;3009;43.224;27.976;2023-05-10T01:27:07;9.60;;;6.53;;
5965;SDS011;3009;43.224;27.976;2023-05-10T01:33:16;7.53;;;5.70;;
5965;SDS011;3009;43.224;27.976;2023-05-10T01:35:47;8.67;;;7.10;;
5965;SDS011;3009;43.224;27.976;2023-05-10T01:38:26;7.63;;;6.80;;
5965;SDS011;3009;43.224;27.976;2023-05-10T01:41:02;10.80;;;6.50;;
5965;SDS011;3009;43.224;27.976;2023-05-10T01:43:42;12.90;;;7.93;;
5965;SDS011;3009;43.224;27.976;2023-05-10T01:46:16;11.30;;;7.70;;
5965;SDS011;3009;43.224;27.976;2023-05-10T01:48:57;10.53;;;7.13;;
5965;SDS011;3009;43.224;27.976;2023-05-10T01:51:29;13.43;;;8.30;;
5965;SDS011;3009;43.224;27.976;2023-05-10T01:54:03;10.07;;;7.30;;
5965;SDS011;3009;43.224;27.976;2023-05-10T01:56:33;10.43;;;7.50;;
5965;SDS011;3009;43.224;27.976;2023-05-10T01:59:04;9.13;;;7.20;;
5965;SDS011;3009;43.224;27.976;2023-05-10T02:01:36;9.77;;;7.60;;
5965;SDS011;3009;43.224;27.976;2023-05-10T02:04:07;9.00;;;7.40;;
5965;SDS011;3009;43.224;27.976;2023-05-10T02:06:37;9.70;;;8.37;;
5965;SDS011;3009;43.224;27.976;2023-05-10T02:09:07;12.93;;;7.87;;
5965;SDS011;3009;43.224;27.976;2023-05-10T02:11:38;11.90;;;8.90;;
5965;SDS011;3009;43.224;27.976;2023-05-10T02:14:09;10.33;;;8.50;;
5965;SDS011;3009;43.224;27.976;2023-05-10T02:16:40;11.80;;;8.80;;
5965;SDS011;3009;43.224;27.976;2023-05-10T02:19:10;10.33;;;8.30;;
5965;SDS011;3009;43.224;27.976;2023-05-10T02:21:41;9.70;;;8.33;;
5965;SDS011;3009;43.224;27.976;2023-05-10T02:24:12;13.00;;;8.77;;
5965;SDS011;3009;43.224;27.976;2023-05-10T02:26:43;12.27;;;8.57;;
5965;SDS011;3009;43.224;27.976;2023-05-10T02:29:13;9.67;;;8.00;;
5965;SDS011;3009;43.224;27.976;2023-05-10T02:31:42;10.50;;;8.77;;
5965;SDS011;3009;43.224;27.976;2023-05-10T02:34:13;9.00;;;7.73;;
5965;SDS011;3009;43.224;27.976;2023-05-10T02:36:41;19.90;;;9.47;;
5965;SDS011;3009;43.224;27.976;2023-05-10T02:39:10;10.90;;;7.93;;
5965;SDS011;3009;43.224;27.976;2023-05-10T02:41:41;16.00;;;9.70;;
5965;SDS011;3009;43.224;27.976;2023-05-10T02:44:11;11.97;;;8.60;;
5965;SDS011;3009;43.224;27.976;2023-05-10T02:46:43;12.50;;;8.00;;
5965;SDS011;3009;43.224;27.976;2023-05-10T02:49:13;12.70;;;8.60;;
5965;SDS011;3009;43.224;27.976;2023-05-10T02:51:44;11.93;;;8.77;;
5965;SDS011;3009;43.224;27.976;2023-05-10T02:54:19;11.63;;;8.47;;
5965;SDS011;3009;43.224;27.976;2023-05-10T02:56:54;12.97;;;8.70;;
5965;SDS011;3009;43.224;27.976;2023-05-10T02:59:25;23.40;;;9.30;;
5965;SDS011;3009;43.224;27.976;2023-05-10T03:01:54;11.87;;;8.00;;
5965;SDS011;3009;43.224;27.976;2023-05-10T03:04:24;13.43;;;8.67;;
5965;SDS011;3009;43.224;27.976;2023-05-10T03:06:52;18.10;;;9.77;;
5965;SDS011;3009;43.224;27.976;2023-05-10T03:09:21;10.80;;;8.90;;
5965;SDS011;3009;43.224;27.976;2023-05-10T03:11:51;13.13;;;9.20;;
5965;SDS011;3009;43.224;27.976;2023-05-10T03:14:32;9.17;;;8.13;;
5965;SDS011;3009;43.224;27.976;2023-05-10T03:17:10;9.93;;;8.10;;
5965;SDS011;3009;43.224;27.976;2023-05-10T03:19:45;15.73;;;8.40;;
5965;SDS011;3009;43.224;27.976;2023-05-10T03:22:24;9.53;;;8.53;;
5965;SDS011;3009;43.224;27.976;2023-05-10T03:24:58;9.27;;;7.50;;
5965;SDS011;3009;43.224;27.976;2023-05-10T03:27:33;8.60;;;7.23;;
5965;SDS011;3009;43.224;27.976;2023-05-10T03:30:03;11.53;;;7.50;;
5965;SDS011;3009;43.224;27.976;2023-05-10T03:32:33;7.70;;;6.90;;
5965;SDS011;3009;43.224;27.976;2023-05-10T03:35:07;7.63;;;6.93;;
5965;SDS011;3009;43.224;27.976;2023-05-10T03:37:36;9.53;;;6.80;;
5965;SDS011;3009;43.224;27.976;2023-05-10T03:40:04;8.57;;;7.67;;
5965;SDS011;3009;43.224;27.976;2023-05-10T03:42:34;8.57;;;6.90;;
5965;SDS011;3009;43.224;27.976;2023-05-10T03:45:03;6.53;;;5.93;;
5965;SDS011;3009;43.224;27.976;2023-05-10T03:47:32;9.63;;;7.40;;
5965;SDS011;3009;43.224;27.976;2023-05-10T03:50:01;9.30;;;6.20;;
5965;SDS011;3009;43.224;27.976;2023-05-10T03:52:30;8.03;;;5.97;;
5965;SDS011;3009;43.224;27.976;2023-05-10T03:54:59;6.27;;;5.67;;
5965;SDS011;3009;43.224;27.976;2023-05-10T03:57:29;10.10;;;6.40;;
5965;SDS011;3009;43.224;27.976;2023-05-10T03:59:57;6.83;;;5.80;;
5965;SDS011;3009;43.224;27.976;2023-05-10T04:02:26;6.70;;;6.10;;
5965;SDS011;3009;43.224;27.976;2023-05-10T04:04:54;5.83;;;5.10;;
5965;SDS011;3009;43.224;27.976;2023-05-10T04:07:23;7.80;;;5.50;;
5965;SDS011;3009;43.224;27.976;2023-05-10T04:09:52;5.93;;;5.40;;
5965;SDS011;3009;43.224;27.976;2023-05-10T04:12:21;6.33;;;5.83;;
5965;SDS011;3009;43.224;27.976;2023-05-10T04:14:49;6.30;;;5.70;;
5965;SDS011;3009;43.224;27.976;2023-05-10T04:17:18;12.57;;;5.43;;
5965;SDS011;3009;43.224;27.976;2023-05-10T04:19:46;7.87;;;5.20;;
5965;SDS011;3009;43.224;27.976;2023-05-10T04:22:14;7.30;;;5.20;;
5965;SDS011;3009;43.224;27.976;2023-05-10T04:24:44;4.73;;;4.37;;
5965;SDS011;3009;43.224;27.976;2023-05-10T04:27:13;5.43;;;5.00;;
5965;SDS011;3009;43.224;27.976;2023-05-10T04:29:42;6.53;;;4.67;;
5965;SDS011;3009;43.224;27.976;2023-05-10T04:32:10;5.47;;;5.07;;
5965;SDS011;3009;43.224;27.976;2023-05-10T04:34:38;7.73;;;4.27;;
5965;SDS011;3009;43.224;27.976;2023-05-10T04:37:07;4.10;;;3.80;;
5965;SDS011;3009;43.224;27.976;2023-05-10T04:39:35;4.20;;;4.00;;
5965;SDS011;3009;43.224;27.976;2023-05-10T04:42:06;4.80;;;4.40;;
5965;SDS011;3009;43.224;27.976;2023-05-10T04:44:36;6.70;;;3.70;;
5965;SDS011;3009;43.224;27.976;2023-05-10T04:47:04;4.17;;;3.77;;
5965;SDS011;3009;43.224;27.976;2023-05-10T04:49:35;3.90;;;3.63;;
5965;SDS011;3009;43.224;27.976;2023-05-10T04:52:03;4.03;;;3.83;;
5965;SDS011;3009;43.224;27.976;2023-05-10T04:54:32;4.07;;;3.50;;
5965;SDS011;3009;43.224;27.976;2023-05-10T04:57:01;4.43;;;4.10;;
5965;SDS011;3009;43.224;27.976;2023-05-10T04:59:29;3.47;;;3.27;;
5965;SDS011;3009;43.224;27.976;2023-05-10T05:01:59;3.90;;;3.70;;
5965;SDS011;3009;43.224;27.976;2023-05-10T05:04:27;4.13;;;3.63;;
5965;SDS011;3009;43.224;27.976;2023-05-10T05:06:57;5.43;;;4.37;;
5965;SDS011;3009;43.224;27.976;2023-05-10T05:09:25;3.27;;;3.17;;
5965;SDS011;3009;43.224;27.976;2023-05-10T05:11:54;4.53;;;4.17;;
5965;SDS011;3009;43.224;27.976;2023-05-10T05:14:22;4.43;;;4.23;;
5965;SDS011;3009;43.224;27.976;2023-05-10T05:16:51;5.17;;;4.60;;
5965;SDS011;3009;43.224;27.976;2023-05-10T05:19:21;4.00;;;3.80;;
5965;SDS011;3009;43.224;27.976;2023-05-10T05:21:49;3.90;;;3.60;;
5965;SDS011;3009;43.224;27.976;2023-05-10T05:24:18;4.20;;;3.80;;
5965;SDS011;3009;43.224;27.976;2023-05-10T05:26:46;5.03;;;4.27;;
5965;SDS011;3009;43.224;27.976;2023-05-10T05:29:15;4.17;;;3.77;;
5965;SDS011;3009;43.224;27.976;2023-05-10T05:31:43;5.03;;;4.63;;
5965;SDS011;3009;43.224;27.976;2023-05-10T05:34:11;6.30;;;3.87;;
5965;SDS011;3009;43.224;27.976;2023-05-10T05:36:41;5.50;;;3.87;;
5965;SDS011;3009;43.224;27.976;2023-05-10T05:39:09;4.27;;;3.83;;
5965;SDS011;3009;43.224;27.976;2023-05-10T05:41:38;4.30;;;4.00;;
5965;SDS011;3009;43.224;27.976;2023-05-10T05:44:06;3.90;;;3.60;;
5965;SDS011;3009;43.224;27.976;2023-05-10T05:46:34;3.67;;;3.10;;
5965;SDS011;3009;43.224;27.976;2023-05-10T05:49:03;7.13;;;4.17;;
5965;SDS011;3009;43.224;27.976;2023-05-10T05:51:31;4.53;;;3.57;;
5965;SDS011;3009;43.224;27.976;2023-05-10T05:54:02;4.07;;;3.87;;
5965;SDS011;3009;43.224;27.976;2023-05-10T05:56:31;4.33;;;3.93;;
5965;SDS011;3009;43.224;27.976;2023-05-10T05:58:59;4.20;;;3.80;;
5965;SDS011;3009;43.224;27.976;2023-05-10T06:01:27;4.23;;;3.80;;
5965;SDS011;3009;43.224;27.976;2023-05-10T06:03:56;4.17;;;3.77;;
5965;SDS011;3009;43.224;27.976;2023-05-10T06:06:24;4.37;;;4.07;;
5965;SDS011;3009;43.224;27.976;2023-05-10T06:08:53;4.97;;;4.57;;
5965;SDS011;3009;43.224;27.976;2023-05-10T06:11:23;6.10;;;3.93;;
5965;SDS011;3009;43.224;27.976;2023-05-10T06:13:53;4.23;;;3.93;;
5965;SDS011;3009;43.224;27.976;2023-05-10T06:16:21;4.90;;;4.50;;
5965;SDS011;3009;43.224;27.976;2023-05-10T06:18:49;5.50;;;4.47;;
5965;SDS011;3009;43.224;27.976;2023-05-10T06:21:18;7.57;;;3.70;;
5965;SDS011;3009;43.224;27.976;2023-05-10T06:23:46;4.50;;;4.20;;
5965;SDS011;3009;43.224;27.976;2023-05-10T06:26:14;5.37;;;4.13;;
5965;SDS011;3009;43.224;27.976;2023-05-10T06:28:44;4.00;;;3.70;;
5965;SDS011;3009;43.224;27.976;2023-05-10T06:31:13;5.20;;;4.67;;
5965;SDS011;3009;43.224;27.976;2023-05-10T06:33:41;4.77;;;4.37;;
5965;SDS011;3009;43.224;27.976;2023-05-10T06:36:09;4.63;;;4.33;;
5965;SDS011;3009;43.224;27.976;2023-05-10T06:38:38;4.67;;;4.27;;
5965;SDS011;3009;43.224;27.976;2023-05-10T06:41:06;4.27;;;3.97;;
5965;SDS011;3009;43.224;27.976;2023-05-10T06:43:34;5.50;;;4.93;;
5965;SDS011;3009;43.224;27.976;2023-05-10T06:46:07;5.90;;;4.17;;
5965;SDS011;3009;43.224;27.976;2023-05-10T06:48:36;5.00;;;4.70;;
5965;SDS011;3009;43.224;27.976;2023-05-10T06:51:04;5.20;;;4.47;;
5965;SDS011;3009;43.224;27.976;2023-05-10T06:53:32;4.50;;;4.30;;
5965;SDS011;3009;43.224;27.976;2023-05-10T06:56:01;4.70;;;4.40;;
5965;SDS011;3009;43.224;27.976;2023-05-10T06:58:30;4.30;;;4.00;;
5965;SDS011;3009;43.224;27.976;2023-05-10T07:01:02;4.90;;;4.60;;
5965;SDS011;3009;43.224;27.976;2023-05-10T07:03:33;5.27;;;4.10;;
5965;SDS011;3009;43.224;27.976;2023-05-10T07:06:01;12.63;;;4.80;;
5965;SDS011;3009;43.224;27.976;2023-05-10T07:08:30;5.73;;;4.30;;
5965;SDS011;3009;43.224;27.976;2023-05-10T07:11:00;7.50;;;4.87;;
5965;SDS011;3009;43.224;27.976;2023-05-10T07:13:29;4.57;;;4.17;;
5965;SDS011;3009;43.224;27.976;2023-05-10T07:15:58;5.33;;;4.83;;
5965;SDS011;3009;43.224;27.976;2023-05-10T07:18:28;4.40;;;4.10;;
5965;SDS011;3009;43.224;27.976;2023-05-10T07:20:58;4.60;;;4.30;;
5965;SDS011;3009;43.224;27.976;2023-05-10T07:23:27;4.97;;;4.57;;
5965;SDS011;3009;43.224;27.976;2023-05-10T07:25:56;6.83;;;4.57;;
5965;SDS011;3009;43.224;27.976;2023-05-10T07:28:24;4.63;;;4.33;;
5965;SDS011;3009;43.224;27.976;2023-05-10T07:30:53;5.30;;;4.63;;
5965;SDS011;3009;43.224;27.976;2023-05-10T07:33:21;7.40;;;4.37;;
5965;SDS011;3009;43.224;27.976;2023-05-10T07:35:50;12.33;;;4.60;;
5965;SDS011;3009;43.224;27.976;2023-05-10T07:38:19;7.80;;;5.30;;
5965;SDS011;3009;43.224;27.976;2023-05-10T07:40:48;10.03;;;4.43;;
5965;SDS011;3009;43.224;27.976;2023-05-10T08:48:06;5.13;;;4.63;;
5965;SDS011;3009;43.224;27.976;2023-05-10T08:50:36;6.47;;;4.33;;
5965;SDS011;3009;43.224;27.976;2023-05-10T08:53:06;5.10;;;4.50;;
5965;SDS011;3009;43.224;27.976;2023-05-10T08:55:37;20.50;;;4.23;;
5965;SDS011;3009;43.224;27.976;2023-05-10T08:58:06;5.33;;;4.03;;
5965;SDS011;3009;43.224;27.976;2023-05-10T09:00:35;4.40;;;4.07;;
5965;SDS011;3009;43.224;27.976;2023-05-10T09:03:06;4.23;;;3.87;;
5965;SDS011;3009;43.224;27.976;2023-05-10T09:05:34;6.27;;;4.50;;
5965;SDS011;3009;43.224;27.976;2023-05-10T09:08:04;4.80;;;4.33;;
5965;SDS011;3009;43.224;27.976;2023-05-10T09:10:34;6.50;;;4.73;;
5965;SDS011;3009;43.224;27.976;2023-05-10T09:13:03;4.90;;;4.47;;
5965;SDS011;3009;43.224;27.976;2023-05-10T09:15:32;6.10;;;4.43;;
5965;SDS011;3009;43.224;27.976;2023-05-10T09:18:00;4.57;;;4.27;;
5965;SDS011;3009;43.224;27.976;2023-05-10T09:20:31;5.03;;;4.63;;
5965;SDS011;3009;43.224;27.976;2023-05-10T09:23:00;6.43;;;4.90;;
5965;SDS011;3009;43.224;27.976;2023-05-10T09:25:28;7.33;;;5.40;;
5965;SDS011;3009;43.224;27.976;2023-05-10T09:27:59;4.87;;;4.57;;
5965;SDS011;3009;43.224;27.976;2023-05-10T09:30:28;5.30;;;4.23;;
5965;SDS011;3009;43.224;27.976;2023-05-10T09:32:58;4.80;;;4.40;;
5965;SDS011;3009;43.224;27.976;2023-05-10T09:35:28;5.27;;;4.70;;
5965;SDS011;3009;43.224;27.976;2023-05-10T09:37:59;10.60;;;4.80;;
5965;SDS011;3009;43.224;27.976;2023-05-10T09:40:30;5.00;;;4.50;;
5965;SDS011;3009;43.224;27.976;2023-05-10T09:43:00;5.07;;;4.50;;
5965;SDS011;3009;43.224;27.976;2023-05-10T09:45:29;8.93;;;4.43;;
5965;SDS011;3009;43.224;27.976;2023-05-10T09:48:02;5.23;;;4.47;;
5965;SDS011;3009;43.224;27.976;2023-05-10T09:50:31;5.00;;;4.10;;
5965;SDS011;3009;43.224;27.976;2023-05-10T09:53:02;5.00;;;4.40;;
5965;SDS011;3009;43.224;27.976;2023-05-10T09:55:38;6.70;;;4.93;;
5965;SDS011;3009;43.224;27.976;2023-05-10T09:58:07;4.90;;;4.50;;
5965;SDS011;3009;43.224;27.976;2023-05-10T10:00:38;5.47;;;4.17;;
5965;SDS011;3009;43.224;27.976;2023-05-10T10:03:11;6.70;;;4.10;;
5965;SDS011;3009;43.224;27.976;2023-05-10T10:05:41;4.60;;;4.20;;
5965;SDS011;3009;43.224;27.976;2023-05-10T10:08:12;5.27;;;4.87;;
5965;SDS011;3009;43.224;27.976;2023-05-10T10:10:41;7.00;;;4.23;;
5965;SDS011;3009;43.224;27.976;2023-05-10T10:13:12;4.43;;;3.87;;
5965;SDS011;3009;43.224;27.976;2023-05-10T10:15:41;5.97;;;4.10;;
5965;SDS011;3009;43.224;27.976;2023-05-10T10:18:12;4.63;;;4.23;;
5965;SDS011;3009;43.224;27.976;2023-05-10T10:20:42;4.50;;;4.10;;
5965;SDS011;3009;43.224;27.976;2023-05-10T10:23:12;5.60;;;4.87;;
5965;SDS011;3009;43.224;27.976;2023-05-10T10:25:43;4.10;;;3.70;;
5965;SDS011;3009;43.224;27.976;2023-05-10T10:28:16;4.50;;;4.10;;
5965;SDS011;3009;43.224;27.976;2023-05-10T10:30:53;9.00;;;4.63;;
5965;SDS011;3009;43.224;27.976;2023-05-10T10:33:33;4.50;;;4.20;;
5965;SDS011;3009;43.224;27.976;2023-05-10T10:36:08;9.43;;;4.33;;
5965;SDS011;3009;43.224;27.976;2023-05-10T10:38:39;4.63;;;4.30;;
5965;SDS011;3009;43.224;27.976;2023-05-10T10:41:32;4.17;;;3.80;;
5965;SDS011;3009;43.224;27.976;2023-05-10T10:47:06;3.87;;;3.60;;
5965;SDS011;3009;43.224;27.976;2023-05-10T10:49:51;4.70;;;4.20;;
5965;SDS011;3009;43.224;27.976;2023-05-10T10:52:33;4.73;;;4.33;;
5965;SDS011;3009;43.224;27.976;2023-05-10T10:55:05;5.40;;;4.30;;
5965;SDS011;3009;43.224;27.976;2023-05-10T10:57:42;9.93;;;4.20;;
5965;SDS011;3009;43.224;27.976;2023-05-10T11:00:22;4.10;;;3.90;;
5965;SDS011;3009;43.224;27.976;2023-05-10T11:02:58;5.23;;;4.10;;
5965;SDS011;3009;43.224;27.976;2023-05-10T11:08:18;3.90;;;3.47;;
5965;SDS011;3009;43.224;27.976;2023-05-10T11:11:02;4.23;;;3.77;;
5965;SDS011;3009;43.224;27.976;2023-05-10T11:13:34;4.70;;;4.40;;
5965;SDS011;3009;43.224;27.976;2023-05-10T11:16:12;4.60;;;4.13;;
5965;SDS011;3009;43.224;27.976;2023-05-10T11:18:52;4.50;;;4.20;;
5965;SDS011;3009;43.224;27.976;2023-05-10T11:21:31;4.63;;;4.10;;
5965;SDS011;3009;43.224;27.976;2023-05-10T11:24:00;4.30;;;4.00;;
5965;SDS011;3009;43.224;27.976;2023-05-10T11:26:34;4.43;;;4.23;;
5965;SDS011;3009;43.224;27.976;2023-05-10T11:29:04;4.93;;;4.63;;
5965;SDS011;3009;43.224;27.976;2023-05-10T11:31:32;6.93;;;4.10;;
5965;SDS011;3009;43.224;27.976;2023-05-10T11:34:01;5.00;;;4.37;;
5965;SDS011;3009;43.224;27.976;2023-05-10T11:36:32;8.17;;;4.23;;
5965;SDS011;3009;43.224;27.976;2023-05-10T11:39:01;5.73;;;4.40;;
5965;SDS011;3009;43.224;27.976;2023-05-10T11:41:30;5.20;;;4.13;;
5965;SDS011;3009;43.224;27.976;2023-05-10T11:44:01;7.37;;;4.57;;
5965;SDS011;3009;43.224;27.976;2023-05-10T11:46:30;4.50;;;4.17;;
5965;SDS011;3009;43.224;27.976;2023-05-10T11:49:00;8.37;;;4.80;;
5965;SDS011;3009;43.224;27.976;2023-05-10T11:51:32;4.47;;;4.20;;
5965;SDS011;3009;43.224;27.976;2023-05-10T11:54:05;4.67;;;4.27;;
5965;SDS011;3009;43.224;27.976;2023-05-10T11:56:34;5.40;;;4.30;;
5965;SDS011;3009;43.224;27.976;2023-05-10T11:59:04;7.03;;;5.00;;
5965;SDS011;3009;43.224;27.976;2023-05-10T12:01:32;5.80;;;5.30;;
5965;SDS011;3009;43.224;27.976;2023-05-10T12:04:01;8.43;;;4.60;;
5965;SDS011;3009;43.224;27.976;2023-05-10T12:06:32;8.03;;;7.23;;
5965;SDS011;3009;43.224;27.976;2023-05-10T12:09:07;6.67;;;6.00;;
5965;SDS011;3009;43.224;27.976;2023-05-10T12:11:37;10.10;;;8.33;;
5965;SDS011;3009;43.224;27.976;2023-05-10T12:14:10;8.70;;;7.37;;
5965;SDS011;3009;43.224;27.976;2023-05-10T12:16:38;5.47;;;4.97;;
5965;SDS011;3009;43.224;27.976;2023-05-10T12:19:08;4.83;;;4.43;;
5965;SDS011;3009;43.224;27.976;2023-05-10T12:21:36;7.73;;;6.50;;
5965;SDS011;3009;43.224;27.976;2023-05-10T12:24:05;9.00;;;4.30;;
5965;SDS011;3009;43.224;27.976;2023-05-10T12:26:35;7.47;;;4.40;;
5965;SDS011;3009;43.224;27.976;2023-05-10T12:29:14;4.07;;;3.67;;
5965;SDS011;3009;43.224;27.976;2023-05-10T12:31:51;3.80;;;3.60;;
5965;SDS011;3009;43.224;27.976;2023-05-10T12:34:26;5.53;;;4.00;;
5965;SDS011;3009;43.224;27.976;2023-05-10T12:36:57;5.13;;;4.27;;
5965;SDS011;3009;43.224;27.976;2023-05-10T12:39:26;4.80;;;4.27;;
5965;SDS011;3009;43.224;27.976;2023-05-10T12:42:09;5.90;;;3.80;;
5965;SDS011;3009;43.224;27.976;2023-05-10T12:44:39;10.73;;;3.67;;
5965;SDS011;3009;43.224;27.976;2023-05-10T12:47:08;4.50;;;4.20;;
5965;SDS011;3009;43.224;27.976;2023-05-10T12:49:37;4.43;;;3.50;;
5965;SDS011;3009;43.224;27.976;2023-05-10T12:52:05;4.67;;;4.10;;
5965;SDS011;3009;43.224;27.976;2023-05-10T12:54:34;3.70;;;3.40;;
5965;SDS011;3009;43.224;27.976;2023-05-10T12:57:02;5.73;;;3.77;;
5965;SDS011;3009;43.224;27.976;2023-05-10T12:59:31;4.80;;;4.03;;
5965;SDS011;3009;43.224;27.976;2023-05-10T13:02:04;4.33;;;3.90;;
5965;SDS011;3009;43.224;27.976;2023-05-10T13:04:33;3.63;;;3.40;;
5965;SDS011;3009;43.224;27.976;2023-05-10T13:07:04;4.57;;;3.87;;
5965;SDS011;3009;43.224;27.976;2023-05-10T13:09:32;5.70;;;3.43;;
5965;SDS011;3009;43.224;27.976;2023-05-10T13:12:00;6.80;;;3.80;;
5965;SDS011;3009;43.224;27.976;2023-05-10T13:14:29;4.87;;;4.33;;
5965;SDS011;3009;43.224;27.976;2023-05-10T13:16:58;10.37;;;3.70;;
5965;SDS011;3009;43.224;27.976;2023-05-10T13:19:28;4.60;;;3.83;;
5965;SDS011;3009;43.224;27.976;2023-05-10T13:21:57;3.63;;;3.40;;
5965;SDS011;3009;43.224;27.976;2023-05-10T13:24:25;4.00;;;3.80;;
5965;SDS011;3009;43.224;27.976;2023-05-10T13:26:54;3.87;;;3.50;;
5965;SDS011;3009;43.224;27.976;2023-05-10T13:29:22;6.53;;;4.03;;
5965;SDS011;3009;43.224;27.976;2023-05-10T13:31:50;4.60;;;3.33;;
5965;SDS011;3009;43.224;27.976;2023-05-10T13:34:19;3.53;;;3.23;;
5965;SDS011;3009;43.224;27.976;2023-05-10T13:36:49;5.83;;;3.70;;
5965;SDS011;3009;43.224;27.976;2023-05-10T13:39:17;3.60;;;3.30;;
5965;SDS011;3009;43.224;27.976;2023-05-10T13:41:46;7.63;;;3.20;;
5965;SDS011;3009;43.224;27.976;2023-05-10T13:44:15;8.83;;;3.63;;
5965;SDS011;3009;43.224;27.976;2023-05-10T13:46:43;6.80;;;4.27;;
5965;SDS011;3009;43.224;27.976;2023-05-10T13:49:12;4.20;;;3.47;;
5965;SDS011;3009;43.224;27.976;2023-05-10T13:51:40;3.87;;;3.53;;
5965;SDS011;3009;43.224;27.976;2023-05-10T13:54:10;4.53;;;3.47;;
5965;SDS011;3009;43.224;27.976;2023-05-10T13:56:39;4.23;;;3.83;;
5965;SDS011;3009;43.224;27.976;2023-05-10T13:59:08;4.80;;;3.40;;
5965;SDS011;3009;43.224;27.976;2023-05-10T14:01:37;3.60;;;3.30;;
5965;SDS011;3009;43.224;27.976;2023-05-10T14:04:05;3.60;;;3.30;;
5965;SDS011;3009;43.224;27.976;2023-05-10T14:06:37;3.70;;;3.50;;
5965;SDS011;3009;43.224;27.976;2023-05-10T14:09:05;4.17;;;3.57;;
5965;SDS011;3009;43.224;27.976;2023-05-10T14:11:35;3.63;;;3.33;;
5965;SDS011;3009;43.224;27.976;2023-05-10T14:14:04;6.30;;;3.60;;
5965;SDS011;3009;43.224;27.976;2023-05-10T14:16:32;3.27;;;3.07;;
5965;SDS011;3009;43.224;27.976;2023-05-10T14:19:01;3.57;;;3.33;;
5965;SDS011;3009;43.224;27.976;2023-05-10T14:21:29;3.83;;;3.50;;
5965;SDS011;3009;43.224;27.976;2023-05-10T14:23:57;6.43;;;3.90;;
5965;SDS011;3009;43.224;27.976;2023-05-10T14:26:26;7.10;;;3.67;;
5965;SDS011;3009;43.224;27.976;2023-05-10T14:28:56;9.87;;;3.60;;
5965;SDS011;3009;43.224;27.976;2023-05-10T14:31:25;4.77;;;3.73;;
5965;SDS011;3009;43.224;27.976;2023-05-10T14:33:54;6.53;;;3.00;;
5965;SDS011;3009;43.224;27.976;2023-05-10T14:36:22;4.00;;;3.13;;
5965;SDS011;3009;43.224;27.976;2023-05-10T14:38:51;4.30;;;3.90;;
5965;SDS011;3009;43.224;27.976;2023-05-10T14:41:19;4.60;;;4.20;;
5965;SDS011;3009;43.224;27.976;2023-05-10T14:43:47;11.03;;;3.47;;
5965;SDS011;3009;43.224;27.976;2023-05-10T14:46:17;5.63;;;3.93;;
5965;SDS011;3009;43.224;27.976;2023-05-10T14:48:46;5.70;;;3.97;;
5965;SDS011;3009;43.224;27.976;2023-05-10T14:51:14;4.10;;;3.60;;
5965;SDS011;3009;43.224;27.976;2023-05-10T14:53:43;6.03;;;4.27;;
5965;SDS011;3009;43.224;27.976;2023-05-10T14:56:11;4.63;;;4.23;;
5965;SDS011;3009;43.224;27.976;2023-05-10T14:58:40;4.43;;;3.70;;
5965;SDS011;3009;43.224;27.976;2023-05-10T15:01:08;7.37;;;4.30;;
5965;SDS011;3009;43.224;27.976;2023-05-10T15:03:39;13.40;;;4.10;;
5965;SDS011;3009;43.224;27.976;2023-05-10T15:06:08;7.93;;;4.03;;
5965;SDS011;3009;43.224;27.976;2023-05-10T15:08:37;15.23;;;4.20;;
5965;SDS011;3009;43.224;27.976;2023-05-10T15:11:05;9.43;;;3.80;;
5965;SDS011;3009;43.224;27.976;2023-05-10T15:13:33;4.90;;;3.57;;
5965;SDS011;3009;43.224;27.976;2023-05-10T15:16:02;5.50;;;5.00;;
5965;SDS011;3009;43.224;27.976;2023-05-10T15:18:30;9.47;;;5.20;;
5965;SDS011;3009;43.224;27.976;2023-05-10T15:21:00;7.13;;;5.30;;
5965;SDS011;3009;43.224;27.976;2023-05-10T15:23:29;6.70;;;5.60;;
5965;SDS011;3009;43.224;27.976;2023-05-10T15:25:58;10.37;;;5.13;;
5965;SDS011;3009;43.224;27.976;2023-05-10T15:28:29;3.90;;;3.60;;
5965;SDS011;3009;43.224;27.976;2023-05-10T15:30:59;4.20;;;3.80;;
5965;SDS011;3009;43.224;27.976;2023-05-10T15:33:28;5.33;;;4.67;;
5965;SDS011;3009;43.224;27.976;2023-05-10T15:35:56;6.40;;;4.73;;
5965;SDS011;3009;43.224;27.976;2023-05-10T15:38:26;7.20;;;5.20;;
5965;SDS011;3009;43.224;27.976;2023-05-10T15:40:55;4.63;;;4.30;;
5965;SDS011;3009;43.224;27.976;2023-05-10T15:43:25;4.40;;;4.10;;
5965;SDS011;3009;43.224;27.976;2023-05-10T15:45:53;5.03;;;4.53;;
5965;SDS011;3009;43.224;27.976;2023-05-10T15:48:21;7.53;;;5.53;;
5965;SDS011;3009;43.224;27.976;2023-05-10T15:50:50;12.30;;;4.80;;
5965;SDS011;3009;43.224;27.976;2023-05-10T15:53:19;7.93;;;5.17;;
5965;SDS011;3009;43.224;27.976;2023-05-10T15:55:48;6.70;;;4.93;;
5965;SDS011;3009;43.224;27.976;2023-05-10T15:58:17;6.53;;;5.03;;
5965;SDS011;3009;43.224;27.976;2023-05-10T16:00:45;8.80;;;6.63;;
5965;SDS011;3009;43.224;27.976;2023-05-10T16:03:14;12.70;;;9.30;;
5965;SDS011;3009;43.224;27.976;2023-05-10T16:05:43;4.30;;;3.90;;
5965;SDS011;3009;43.224;27.976;2023-05-10T16:08:11;6.70;;;4.60;;
5965;SDS011;3009;43.224;27.976;2023-05-10T16:10:39;5.67;;;4.80;;
5965;SDS011;3009;43.224;27.976;2023-05-10T16:13:09;6.30;;;4.70;;
5965;SDS011;3009;43.224;27.976;2023-05-10T16:15:40;4.63;;;4.17;;
5965;SDS011;3009;43.224;27.976;2023-05-10T16:18:09;14.00;;;5.13;;
5965;SDS011;3009;43.224;27.976;2023-05-10T16:20:37;7.03;;;5.10;;
5965;SDS011;3009;43.224;27.976;2023-05-10T16:23:06;5.63;;;5.10;;
5965;SDS011;3009;43.224;27.976;2023-05-10T16:25:35;7.40;;;5.43;;
5965;SDS011;3009;43.224;27.976;2023-05-10T16:28:03;5.53;;;4.63;;
5965;SDS011;3009;43.224;27.976;2023-05-10T16:30:33;5.83;;;5.23;;
5965;SDS011;3009;43.224;27.976;2023-05-10T16:33:02;4.53;;;4.13;;